sensor_id;sensor_type;location;lat;lon;timestamp;temperature;humidity
13598;DHT22;38563;54.258;12.574;2023-04-30T00:00:22;5.90;99.90
13598;DHT22;38563;54.258;12.574;2023-04-30T00:02:49;5.90;99.90
13598;DHT22;38563;54.258;12.574;2023-04-30T00:05:16;5.80;99.90
13598;DHT22;38563;54.258;12.574;2023-04-30T00:07:44;5.80;99.90
13598;DHT22;38563;54.258;12.574;2023-04-30T00:10:11;5.80;99.90
13598;DHT22;38563;54.258;12.574;2023-04-30T00:12:37;5.70;99.90
13598;DHT22;38563;54.258;12.574;2023-04-30T00:15:05;5.70;99.90
13598;DHT22;38563;54.258;12.574;2023-04-30T00:17:32;5.60;99.90
13598;DHT22;38563;54.258;12.574;2023-04-30T00:19:59;5.60;99.90
13598;DHT22;38563;54.258;12.574;2023-04-30T00:22:25;5.70;99.90
13598;DHT22;38563;54.258;12.574;2023-04-30T00:24:53;5.70;99.90
13598;DHT22;38563;54.258;12.574;2023-04-30T00:27:20;5.60;99.90
13598;DHT22;38563;54.258;12.574;2023-04-30T00:29:47;5.60;99.90
13598;DHT22;38563;54.258;12.574;2023-04-30T00:32:14;5.60;99.90
13598;DHT22;38563;54.258;12.574;2023-04-30T00:34:41;5.50;99.90
13598;DHT22;38563;54.258;12.574;2023-04-30T00:37:07;5.50;99.90
13598;DHT22;38563;54.258;12.574;2023-04-30T00:39:34;5.50;99.90
13598;DHT22;38563;54.258;12.574;2023-04-30T00:42:02;5.50;99.90
13598;DHT22;38563;54.258;12.574;2023-04-30T00:44:29;5.40;99.90
13598;DHT22;38563;54.258;12.574;2023-04-30T00:46:56;5.30;99.90
13598;DHT22;38563;54.258;12.574;2023-04-30T00:49:23;5.30;99.90
13598;DHT22;38563;54.258;12.574;2023-04-30T00:51:50;5.30;99.90
13598;DHT22;38563;54.258;12.574;2023-04-30T00:54:19;5.20;99.90
13598;DHT22;38563;54.258;12.574;2023-04-30T00:56:46;5.30;99.90
13598;DHT22;38563;54.258;12.574;2023-04-30T00:59:15;5.30;99.90
13598;DHT22;38563;54.258;12.574;2023-04-30T01:01:42;5.30;99.90
13598;DHT22;38563;54.258;12.574;2023-04-30T01:04:09;5.30;99.90
13598;DHT22;38563;54.258;12.574;2023-04-30T01:06:36;5.30;99.90
13598;DHT22;38563;54.258;12.574;2023-04-30T01:09:03;5.20;99.90
13598;DHT22;38563;54.258;12.574;2023-04-30T01:11:38;5.20;99.90
13598;DHT22;38563;54.258;12.574;2023-04-30T01:14:08;5.10;99.90
13598;DHT22;38563;54.258;12.574;2023-04-30T01:16:42;5.10;99.90
13598;DHT22;38563;54.258;12.574;2023-04-30T01:19:31;5.10;99.90
13598;DHT22;38563;54.258;12.574;2023-04-30T01:22:03;5.10;99.90
13598;DHT22;38563;54.258;12.574;2023-04-30T01:24:48;5.10;99.90
13598;DHT22;38563;54.258;12.574;2023-04-30T01:27:28;5.10;99.90
13598;DHT22;38563;54.258;12.574;2023-04-30T01:29:58;5.00;99.90
13598;DHT22;38563;54.258;12.574;2023-04-30T01:32:27;4.90;99.90
13598;DHT22;38563;54.258;12.574;2023-04-30T01:34:54;4.90;99.90
13598;DHT22;38563;54.258;12.574;2023-04-30T01:37:26;4.90;99.90
13598;DHT22;38563;54.258;12.574;2023-04-30T01:40:07;4.90;99.90
13598;DHT22;38563;54.258;12.574;2023-04-30T01:42:43;4.90;99.90
13598;DHT22;38563;54.258;12.574;2023-04-30T01:45:21;4.80;99.90
13598;DHT22;38563;54.258;12.574;2023-04-30T01:47:59;4.80;99.90
13598;DHT22;38563;54.258;12.574;2023-04-30T01:50:33;4.70;99.90
13598;DHT22;38563;54.258;12.574;2023-04-30T01:53:05;4.70;99.90
13598;DHT22;38563;54.258;12.574;2023-04-30T01:55:35;4.70;99.90
13598;DHT22;38563;54.258;12.574;2023-04-30T01:58:05;4.70;99.90
13598;DHT22;38563;54.258;12.574;2023-04-30T02:00:34;4.60;99.90
13598;DHT22;38563;54.258;12.574;2023-04-30T02:03:01;4.60;99.90
13598;DHT22;38563;54.258;12.574;2023-04-30T02:05:28;4.60;99.90
13598;DHT22;38563;54.258;12.574;2023-04-30T02:07:55;4.60;99.90
13598;DHT22;38563;54.258;12.574;2023-04-30T02:10:24;4.60;99.90
13598;DHT22;38563;54.258;12.574;2023-04-30T02:12:52;4.60;99.90
13598;DHT22;38563;54.258;12.574;2023-04-30T02:15:19;4.60;99.90
13598;DHT22;38563;54.258;12.574;2023-04-30T02:17:47;4.60;99.90
13598;DHT22;38563;54.258;12.574;2023-04-30T02:20:14;4.60;99.90
13598;DHT22;38563;54.258;12.574;2023-04-30T02:22:41;4.60;99.90
13598;DHT22;38563;54.258;12.574;2023-04-30T02:25:08;4.50;99.90
13598;DHT22;38563;54.258;12.574;2023-04-30T02:27:37;4.50;99.90
13598;DHT22;38563;54.258;12.574;2023-04-30T02:30:06;4.60;99.90
13598;DHT22;38563;54.258;12.574;2023-04-30T02:32:33;4.60;99.90
13598;DHT22;38563;54.258;12.574;2023-04-30T02:35:01;4.60;99.90
13598;DHT22;38563;54.258;12.574;2023-04-30T02:37:27;4.60;99.90
13598;DHT22;38563;54.258;12.574;2023-04-30T02:39:54;4.50;99.90
13598;DHT22;38563;54.258;12.574;2023-04-30T02:42:21;4.40;99.90
13598;DHT22;38563;54.258;12.574;2023-04-30T02:44:48;4.50;99.90
13598;DHT22;38563;54.258;12.574;2023-04-30T02:47:14;4.50;99.90
13598;DHT22;38563;54.258;12.574;2023-04-30T02:49:41;4.60;99.90
13598;DHT22;38563;54.258;12.574;2023-04-30T02:52:09;4.60;99.90
13598;DHT22;38563;54.258;12.574;2023-04-30T02:54:36;4.60;99.90
13598;DHT22;38563;54.258;12.574;2023-04-30T02:57:03;4.50;99.90
13598;DHT22;38563;54.258;12.574;2023-04-30T02:59:31;4.50;99.90
13598;DHT22;38563;54.258;12.574;2023-04-30T03:01:58;4.40;99.90
13598;DHT22;38563;54.258;12.574;2023-04-30T03:04:25;4.40;99.90
13598;DHT22;38563;54.258;12.574;2023-04-30T03:06:51;4.50;99.90
13598;DHT22;38563;54.258;12.574;2023-04-30T03:09:20;4.40;99.90
13598;DHT22;38563;54.258;12.574;2023-04-30T03:11:46;4.40;99.90
13598;DHT22;38563;54.258;12.574;2023-04-30T03:14:13;4.50;99.90
13598;DHT22;38563;54.258;12.574;2023-04-30T03:16:40;4.60;99.90
13598;DHT22;38563;54.258;12.574;2023-04-30T03:19:07;4.60;99.90
13598;DHT22;38563;54.258;12.574;2023-04-30T03:21:33;4.60;99.90
13598;DHT22;38563;54.258;12.574;2023-04-30T03:24:00;4.60;99.90
13598;DHT22;38563;54.258;12.574;2023-04-30T03:26:28;4.60;99.90
13598;DHT22;38563;54.258;12.574;2023-04-30T03:28:55;4.50;99.90
13598;DHT22;38563;54.258;12.574;2023-04-30T03:31:22;4.50;99.90
13598;DHT22;38563;54.258;12.574;2023-04-30T03:33:49;4.40;99.90
13598;DHT22;38563;54.258;12.574;2023-04-30T03:36:15;4.40;99.90
13598;DHT22;38563;54.258;12.574;2023-04-30T03:38:42;4.50;99.90
13598;DHT22;38563;54.258;12.574;2023-04-30T03:41:09;4.50;99.90
13598;DHT22;38563;54.258;12.574;2023-04-30T03:43:37;4.50;99.90
13598;DHT22;38563;54.258;12.574;2023-04-30T03:46:04;4.60;99.90
13598;DHT22;38563;54.258;12.574;2023-04-30T03:48:31;4.70;99.90
13598;DHT22;38563;54.258;12.574;2023-04-30T03:50:57;4.60;99.90
13598;DHT22;38563;54.258;12.574;2023-04-30T03:53:24;4.60;99.90
13598;DHT22;38563;54.258;12.574;2023-04-30T03:55:52;4.60;99.90
13598;DHT22;38563;54.258;12.574;2023-04-30T03:58:20;4.60;99.90
13598;DHT22;38563;54.258;12.574;2023-04-30T04:00:48;4.50;99.90
13598;DHT22;38563;54.258;12.574;2023-04-30T04:03:15;4.50;99.90
13598;DHT22;38563;54.258;12.574;2023-04-30T04:05:42;4.50;99.90
13598;DHT22;38563;54.258;12.574;2023-04-30T04:08:09;4.50;99.90
13598;DHT22;38563;54.258;12.574;2023-04-30T04:10:37;4.50;99.90
13598;DHT22;38563;54.258;12.574;2023-04-30T04:13:04;4.50;99.90
13598;DHT22;38563;54.258;12.574;2023-04-30T04:15:32;4.60;99.90
13598;DHT22;38563;54.258;12.574;2023-04-30T04:18:00;4.60;99.90
13598;DHT22;38563;54.258;12.574;2023-04-30T04:20:27;4.70;99.90
13598;DHT22;38563;54.258;12.574;2023-04-30T04:22:54;4.70;99.90
13598;DHT22;38563;54.258;12.574;2023-04-30T04:25:21;4.70;99.90
13598;DHT22;38563;54.258;12.574;2023-04-30T04:27:50;4.60;99.90
13598;DHT22;38563;54.258;12.574;2023-04-30T04:30:17;4.70;99.90
13598;DHT22;38563;54.258;12.574;2023-04-30T04:32:45;4.70;99.90
13598;DHT22;38563;54.258;12.574;2023-04-30T04:35:15;4.70;99.90
13598;DHT22;38563;54.258;12.574;2023-04-30T04:37:43;4.80;99.90
13598;DHT22;38563;54.258;12.574;2023-04-30T04:40:10;4.80;99.90
13598;DHT22;38563;54.258;12.574;2023-04-30T04:42:38;4.90;99.90
13598;DHT22;38563;54.258;12.574;2023-04-30T04:45:06;4.90;99.90
13598;DHT22;38563;54.258;12.574;2023-04-30T04:47:34;5.00;99.90
13598;DHT22;38563;54.258;12.574;2023-04-30T04:50:01;5.10;99.90
13598;DHT22;38563;54.258;12.574;2023-04-30T04:52:29;5.10;99.90
13598;DHT22;38563;54.258;12.574;2023-04-30T04:54:56;5.20;99.90
13598;DHT22;38563;54.258;12.574;2023-04-30T04:57:23;5.30;99.90
13598;DHT22;38563;54.258;12.574;2023-04-30T04:59:50;5.40;99.90
13598;DHT22;38563;54.258;12.574;2023-04-30T05:02:17;5.50;99.90
13598;DHT22;38563;54.258;12.574;2023-04-30T05:04:44;5.50;99.90
13598;DHT22;38563;54.258;12.574;2023-04-30T05:07:11;5.70;99.90
13598;DHT22;38563;54.258;12.574;2023-04-30T05:09:39;5.70;99.90
13598;DHT22;38563;54.258;12.574;2023-04-30T05:12:06;5.70;99.90
13598;DHT22;38563;54.258;12.574;2023-04-30T05:14:33;5.80;99.90
13598;DHT22;38563;54.258;12.574;2023-04-30T05:17:00;5.80;99.90
13598;DHT22;38563;54.258;12.574;2023-04-30T05:19:27;5.80;99.90
13598;DHT22;38563;54.258;12.574;2023-04-30T05:21:53;5.80;99.90
13598;DHT22;38563;54.258;12.574;2023-04-30T05:24:20;5.90;99.90
13598;DHT22;38563;54.258;12.574;2023-04-30T05:26:48;5.90;99.90
13598;DHT22;38563;54.258;12.574;2023-04-30T05:29:15;6.00;99.90
13598;DHT22;38563;54.258;12.574;2023-04-30T05:31:41;6.10;99.90
13598;DHT22;38563;54.258;12.574;2023-04-30T05:34:08;6.10;99.90
13598;DHT22;38563;54.258;12.574;2023-04-30T05:36:35;6.10;99.90
13598;DHT22;38563;54.258;12.574;2023-04-30T05:39:01;6.10;99.90
13598;DHT22;38563;54.258;12.574;2023-04-30T05:41:28;6.10;99.90
13598;DHT22;38563;54.258;12.574;2023-04-30T05:43:56;6.10;99.90
13598;DHT22;38563;54.258;12.574;2023-04-30T05:46:23;6.10;99.90
13598;DHT22;38563;54.258;12.574;2023-04-30T05:48:50;6.30;99.90
13598;DHT22;38563;54.258;12.574;2023-04-30T05:51:17;6.30;99.90
13598;DHT22;38563;54.258;12.574;2023-04-30T05:53:43;6.40;99.90
13598;DHT22;38563;54.258;12.574;2023-04-30T05:56:10;6.50;99.90
13598;DHT22;38563;54.258;12.574;2023-04-30T05:58:38;6.60;99.90
13598;DHT22;38563;54.258;12.574;2023-04-30T06:01:06;6.80;99.90
13598;DHT22;38563;54.258;12.574;2023-04-30T06:03:35;6.80;99.90
13598;DHT22;38563;54.258;12.574;2023-04-30T06:06:02;6.70;99.90
13598;DHT22;38563;54.258;12.574;2023-04-30T06:08:29;6.70;99.90
13598;DHT22;38563;54.258;12.574;2023-04-30T06:10:56;6.70;99.90
13598;DHT22;38563;54.258;12.574;2023-04-30T06:13:22;6.60;99.90
13598;DHT22;38563;54.258;12.574;2023-04-30T06:15:49;6.70;99.90
13598;DHT22;38563;54.258;12.574;2023-04-30T06:18:17;6.80;99.90
13598;DHT22;38563;54.258;12.574;2023-04-30T06:20:44;6.80;99.90
13598;DHT22;38563;54.258;12.574;2023-04-30T06:23:11;6.80;99.90
13598;DHT22;38563;54.258;12.574;2023-04-30T06:25:38;6.80;99.90
13598;DHT22;38563;54.258;12.574;2023-04-30T06:28:04;6.80;99.90
13598;DHT22;38563;54.258;12.574;2023-04-30T06:30:33;6.80;99.90
13598;DHT22;38563;54.258;12.574;2023-04-30T06:33:00;6.80;99.90
13598;DHT22;38563;54.258;12.574;2023-04-30T06:35:28;6.80;99.90
13598;DHT22;38563;54.258;12.574;2023-04-30T06:37:55;7.00;99.90
13598;DHT22;38563;54.258;12.574;2023-04-30T06:40:21;7.00;99.90
13598;DHT22;38563;54.258;12.574;2023-04-30T06:42:48;7.10;99.90
13598;DHT22;38563;54.258;12.574;2023-04-30T06:45:15;7.10;99.90
13598;DHT22;38563;54.258;12.574;2023-04-30T06:47:44;7.30;99.90
13598;DHT22;38563;54.258;12.574;2023-04-30T06:50:11;7.30;99.90
13598;DHT22;38563;54.258;12.574;2023-04-30T06:52:41;7.40;99.90
13598;DHT22;38563;54.258;12.574;2023-04-30T06:55:08;7.40;99.90
13598;DHT22;38563;54.258;12.574;2023-04-30T06:57:35;7.50;99.90
13598;DHT22;38563;54.258;12.574;2023-04-30T07:00:02;7.50;99.90
13598;DHT22;38563;54.258;12.574;2023-04-30T07:02:29;7.50;99.90
13598;DHT22;38563;54.258;12.574;2023-04-30T07:04:56;7.30;99.90
13598;DHT22;38563;54.258;12.574;2023-04-30T07:07:23;7.20;99.90
13598;DHT22;38563;54.258;12.574;2023-04-30T07:09:51;7.20;99.90
13598;DHT22;38563;54.258;12.574;2023-04-30T07:12:19;7.20;99.90
13598;DHT22;38563;54.258;12.574;2023-04-30T07:14:46;7.30;99.90
13598;DHT22;38563;54.258;12.574;2023-04-30T07:17:13;7.40;99.90
13598;DHT22;38563;54.258;12.574;2023-04-30T07:19:40;7.30;99.90
13598;DHT22;38563;54.258;12.574;2023-04-30T07:22:06;7.30;99.90
13598;DHT22;38563;54.258;12.574;2023-04-30T07:24:33;7.10;99.90
13598;DHT22;38563;54.258;12.574;2023-04-30T07:27:01;6.90;99.90
13598;DHT22;38563;54.258;12.574;2023-04-30T07:29:28;7.10;99.90
13598;DHT22;38563;54.258;12.574;2023-04-30T07:31:56;7.30;99.90
13598;DHT22;38563;54.258;12.574;2023-04-30T07:34:23;7.50;99.90
13598;DHT22;38563;54.258;12.574;2023-04-30T07:36:50;7.60;99.90
13598;DHT22;38563;54.258;12.574;2023-04-30T07:39:17;7.70;99.90
13598;DHT22;38563;54.258;12.574;2023-04-30T07:41:44;7.70;99.90
13598;DHT22;38563;54.258;12.574;2023-04-30T07:44:12;7.70;99.90
13598;DHT22;38563;54.258;12.574;2023-04-30T07:46:38;7.80;99.90
13598;DHT22;38563;54.258;12.574;2023-04-30T07:49:05;7.90;99.90
13598;DHT22;38563;54.258;12.574;2023-04-30T07:51:32;8.00;99.90
13598;DHT22;38563;54.258;12.574;2023-04-30T07:53:59;7.90;99.90
13598;DHT22;38563;54.258;12.574;2023-04-30T07:56:25;8.10;99.90
13598;DHT22;38563;54.258;12.574;2023-04-30T07:58:52;8.30;99.90
13598;DHT22;38563;54.258;12.574;2023-04-30T08:01:20;8.30;99.90
13598;DHT22;38563;54.258;12.574;2023-04-30T08:03:47;8.30;99.90
13598;DHT22;38563;54.258;12.574;2023-04-30T08:06:14;8.40;99.90
13598;DHT22;38563;54.258;12.574;2023-04-30T08:08:41;8.50;99.90
13598;DHT22;38563;54.258;12.574;2023-04-30T08:11:07;8.50;99.90
13598;DHT22;38563;54.258;12.574;2023-04-30T08:13:34;8.60;99.90
13598;DHT22;38563;54.258;12.574;2023-04-30T08:16:01;8.60;99.90
13598;DHT22;38563;54.258;12.574;2023-04-30T08:18:29;8.60;99.90
13598;DHT22;38563;54.258;12.574;2023-04-30T08:20:56;8.40;99.90
13598;DHT22;38563;54.258;12.574;2023-04-30T08:23:23;8.30;99.90
13598;DHT22;38563;54.258;12.574;2023-04-30T08:25:50;8.60;99.90
13598;DHT22;38563;54.258;12.574;2023-04-30T08:28:17;8.50;99.90
13598;DHT22;38563;54.258;12.574;2023-04-30T08:30:44;8.50;99.90
13598;DHT22;38563;54.258;12.574;2023-04-30T08:33:11;8.60;99.90
13598;DHT22;38563;54.258;12.574;2023-04-30T08:35:39;8.70;99.90
13598;DHT22;38563;54.258;12.574;2023-04-30T08:38:06;9.10;99.90
13598;DHT22;38563;54.258;12.574;2023-04-30T08:40:34;9.60;99.90
13598;DHT22;38563;54.258;12.574;2023-04-30T08:43:04;10.10;99.90
13598;DHT22;38563;54.258;12.574;2023-04-30T08:45:31;10.60;99.90
13598;DHT22;38563;54.258;12.574;2023-04-30T08:47:58;11.30;99.90
13598;DHT22;38563;54.258;12.574;2023-04-30T08:50:26;11.30;99.90
13598;DHT22;38563;54.258;12.574;2023-04-30T08:52:54;11.00;99.90
13598;DHT22;38563;54.258;12.574;2023-04-30T08:55:21;10.90;99.90
13598;DHT22;38563;54.258;12.574;2023-04-30T08:57:47;10.90;99.90
13598;DHT22;38563;54.258;12.574;2023-04-30T09:00:14;11.30;99.90
13598;DHT22;38563;54.258;12.574;2023-04-30T09:02:42;11.50;99.90
13598;DHT22;38563;54.258;12.574;2023-04-30T09:05:10;10.70;99.90
13598;DHT22;38563;54.258;12.574;2023-04-30T09:07:39;10.70;99.90
13598;DHT22;38563;54.258;12.574;2023-04-30T09:10:14;10.60;99.90
13598;DHT22;38563;54.258;12.574;2023-04-30T09:12:42;10.50;99.90
13598;DHT22;38563;54.258;12.574;2023-04-30T09:15:11;10.50;99.90
13598;DHT22;38563;54.258;12.574;2023-04-30T09:17:38;10.60;99.90
13598;DHT22;38563;54.258;12.574;2023-04-30T09:20:09;10.50;99.90
13598;DHT22;38563;54.258;12.574;2023-04-30T09:22:37;10.50;99.90
13598;DHT22;38563;54.258;12.574;2023-04-30T09:25:06;10.70;99.90
13598;DHT22;38563;54.258;12.574;2023-04-30T09:27:34;10.30;99.90
13598;DHT22;38563;54.258;12.574;2023-04-30T09:30:01;10.70;99.90
13598;DHT22;38563;54.258;12.574;2023-04-30T09:32:27;11.30;99.90
13598;DHT22;38563;54.258;12.574;2023-04-30T09:34:54;11.50;99.90
13598;DHT22;38563;54.258;12.574;2023-04-30T09:37:21;11.40;99.90
13598;DHT22;38563;54.258;12.574;2023-04-30T09:39:49;11.30;99.90
13598;DHT22;38563;54.258;12.574;2023-04-30T09:42:17;11.00;99.90
13598;DHT22;38563;54.258;12.574;2023-04-30T09:44:45;10.60;99.90
13598;DHT22;38563;54.258;12.574;2023-04-30T09:47:14;10.60;99.90
13598;DHT22;38563;54.258;12.574;2023-04-30T09:49:42;10.20;99.90
13598;DHT22;38563;54.258;12.574;2023-04-30T09:52:10;10.00;99.90
13598;DHT22;38563;54.258;12.574;2023-04-30T09:54:37;9.80;99.90
13598;DHT22;38563;54.258;12.574;2023-04-30T09:57:04;10.10;99.90
13598;DHT22;38563;54.258;12.574;2023-04-30T09:59:35;10.00;99.90
13598;DHT22;38563;54.258;12.574;2023-04-30T10:02:06;9.80;99.90
13598;DHT22;38563;54.258;12.574;2023-04-30T10:04:33;9.70;99.90
13598;DHT22;38563;54.258;12.574;2023-04-30T10:07:03;9.80;99.90
13598;DHT22;38563;54.258;12.574;2023-04-30T10:09:36;9.70;99.90
13598;DHT22;38563;54.258;12.574;2023-04-30T10:12:07;10.20;99.90
13598;DHT22;38563;54.258;12.574;2023-04-30T10:14:42;10.40;99.90
13598;DHT22;38563;54.258;12.574;2023-04-30T10:17:13;10.10;99.90
13598;DHT22;38563;54.258;12.574;2023-04-30T10:19:44;10.40;99.90
13598;DHT22;38563;54.258;12.574;2023-04-30T10:22:11;10.70;99.90
13598;DHT22;38563;54.258;12.574;2023-04-30T10:24:39;10.60;99.90
13598;DHT22;38563;54.258;12.574;2023-04-30T10:27:07;10.80;99.90
13598;DHT22;38563;54.258;12.574;2023-04-30T10:29:34;10.90;99.90
13598;DHT22;38563;54.258;12.574;2023-04-30T10:32:00;10.60;99.90
13598;DHT22;38563;54.258;12.574;2023-04-30T10:34:37;11.00;99.90
13598;DHT22;38563;54.258;12.574;2023-04-30T10:37:12;11.40;99.90
13598;DHT22;38563;54.258;12.574;2023-04-30T10:39:41;11.10;99.90
13598;DHT22;38563;54.258;12.574;2023-04-30T10:42:09;11.00;99.90
13598;DHT22;38563;54.258;12.574;2023-04-30T10:44:36;11.20;99.90
13598;DHT22;38563;54.258;12.574;2023-04-30T10:47:04;11.80;99.90
13598;DHT22;38563;54.258;12.574;2023-04-30T10:49:32;11.50;99.90
13598;DHT22;38563;54.258;12.574;2023-04-30T10:52:00;11.70;99.90
13598;DHT22;38563;54.258;12.574;2023-04-30T10:54:30;11.40;99.90
13598;DHT22;38563;54.258;12.574;2023-04-30T10:57:11;11.10;99.90
13598;DHT22;38563;54.258;12.574;2023-04-30T10:59:41;11.20;99.90
13598;DHT22;38563;54.258;12.574;2023-04-30T11:02:14;11.10;99.90
13598;DHT22;38563;54.258;12.574;2023-04-30T11:05:11;11.50;99.90
13598;DHT22;38563;54.258;12.574;2023-04-30T11:07:46;11.30;99.90
13598;DHT22;38563;54.258;12.574;2023-04-30T11:10:14;10.90;99.90
13598;DHT22;38563;54.258;12.574;2023-04-30T11:12:47;11.00;99.90
13598;DHT22;38563;54.258;12.574;2023-04-30T11:15:15;11.00;99.90
13598;DHT22;38563;54.258;12.574;2023-04-30T11:17:43;11.10;99.90
13598;DHT22;38563;54.258;12.574;2023-04-30T11:20:13;11.40;99.90
13598;DHT22;38563;54.258;12.574;2023-04-30T11:22:40;11.60;99.90
13598;DHT22;38563;54.258;12.574;2023-04-30T11:25:08;11.30;99.90
13598;DHT22;38563;54.258;12.574;2023-04-30T11:27:36;11.30;99.90
13598;DHT22;38563;54.258;12.574;2023-04-30T11:30:09;11.40;99.90
13598;DHT22;38563;54.258;12.574;2023-04-30T11:32:38;11.10;99.90
13598;DHT22;38563;54.258;12.574;2023-04-30T11:35:06;10.60;99.90
13598;DHT22;38563;54.258;12.574;2023-04-30T11:37:35;10.80;99.90
13598;DHT22;38563;54.258;12.574;2023-04-30T11:40:04;11.00;99.90
13598;DHT22;38563;54.258;12.574;2023-04-30T11:42:32;11.30;99.90
13598;DHT22;38563;54.258;12.574;2023-04-30T11:45:04;11.70;99.90
13598;DHT22;38563;54.258;12.574;2023-04-30T11:47:42;11.70;99.90
13598;DHT22;38563;54.258;12.574;2023-04-30T11:50:09;11.50;99.90
13598;DHT22;38563;54.258;12.574;2023-04-30T11:52:39;11.50;99.90
13598;DHT22;38563;54.258;12.574;2023-04-30T11:55:11;11.70;99.90
13598;DHT22;38563;54.258;12.574;2023-04-30T11:57:40;12.00;99.90
13598;DHT22;38563;54.258;12.574;2023-04-30T12:00:11;11.90;99.90
13598;DHT22;38563;54.258;12.574;2023-04-30T12:02:38;11.70;99.90
13598;DHT22;38563;54.258;12.574;2023-04-30T12:05:11;11.90;99.90
13598;DHT22;38563;54.258;12.574;2023-04-30T12:07:43;11.80;99.90
13598;DHT22;38563;54.258;12.574;2023-04-30T12:10:11;11.70;99.90
13598;DHT22;38563;54.258;12.574;2023-04-30T12:12:38;11.50;99.90
13598;DHT22;38563;54.258;12.574;2023-04-30T12:15:15;11.50;99.90
13598;DHT22;38563;54.258;12.574;2023-04-30T12:17:42;11.90;99.90
13598;DHT22;38563;54.258;12.574;2023-04-30T12:20:11;11.90;99.90
13598;DHT22;38563;54.258;12.574;2023-04-30T12:22:39;12.00;99.90
13598;DHT22;38563;54.258;12.574;2023-04-30T12:25:07;11.90;99.90
13598;DHT22;38563;54.258;12.574;2023-04-30T12:27:36;11.80;99.90
13598;DHT22;38563;54.258;12.574;2023-04-30T12:30:05;12.00;99.90
13598;DHT22;38563;54.258;12.574;2023-04-30T12:32:37;12.00;99.90
13598;DHT22;38563;54.258;12.574;2023-04-30T12:35:05;11.90;99.90
13598;DHT22;38563;54.258;12.574;2023-04-30T12:37:32;12.10;99.90
13598;DHT22;38563;54.258;12.574;2023-04-30T12:40:00;12.20;99.90
13598;DHT22;38563;54.258;12.574;2023-04-30T12:42:31;12.30;99.90
13598;DHT22;38563;54.258;12.574;2023-04-30T12:44:59;12.00;99.90
13598;DHT22;38563;54.258;12.574;2023-04-30T12:47:26;12.00;99.90
13598;DHT22;38563;54.258;12.574;2023-04-30T12:49:53;11.90;99.90
13598;DHT22;38563;54.258;12.574;2023-04-30T12:52:23;11.90;99.90
13598;DHT22;38563;54.258;12.574;2023-04-30T12:54:51;11.70;99.90
13598;DHT22;38563;54.258;12.574;2023-04-30T12:57:20;12.10;99.90
13598;DHT22;38563;54.258;12.574;2023-04-30T12:59:57;12.20;99.90
13598;DHT22;38563;54.258;12.574;2023-04-30T13:02:26;12.60;99.90
13598;DHT22;38563;54.258;12.574;2023-04-30T13:04:54;12.50;99.90
13598;DHT22;38563;54.258;12.574;2023-04-30T13:07:21;12.70;99.90
13598;DHT22;38563;54.258;12.574;2023-04-30T13:09:48;12.90;99.90
13598;DHT22;38563;54.258;12.574;2023-04-30T13:12:14;12.70;99.90
13598;DHT22;38563;54.258;12.574;2023-04-30T13:14:42;12.50;99.90
13598;DHT22;38563;54.258;12.574;2023-04-30T13:17:09;12.50;99.90
13598;DHT22;38563;54.258;12.574;2023-04-30T13:19:38;12.50;99.90
13598;DHT22;38563;54.258;12.574;2023-04-30T13:22:05;12.50;99.90
13598;DHT22;38563;54.258;12.574;2023-04-30T13:24:31;12.60;99.90
13598;DHT22;38563;54.258;12.574;2023-04-30T13:26:58;12.30;99.90
13598;DHT22;38563;54.258;12.574;2023-04-30T13:29:25;12.20;99.90
13598;DHT22;38563;54.258;12.574;2023-04-30T13:31:53;12.50;99.90
13598;DHT22;38563;54.258;12.574;2023-04-30T13:34:19;12.70;99.90
13598;DHT22;38563;54.258;12.574;2023-04-30T13:36:46;13.10;99.90
13598;DHT22;38563;54.258;12.574;2023-04-30T13:39:13;13.00;99.90
13598;DHT22;38563;54.258;12.574;2023-04-30T13:41:40;12.90;99.90
13598;DHT22;38563;54.258;12.574;2023-04-30T13:44:06;12.70;99.90
13598;DHT22;38563;54.258;12.574;2023-04-30T13:46:33;12.80;99.90
13598;DHT22;38563;54.258;12.574;2023-04-30T13:49:02;12.90;99.90
13598;DHT22;38563;54.258;12.574;2023-04-30T13:51:28;13.00;99.90
13598;DHT22;38563;54.258;12.574;2023-04-30T13:53:55;13.00;99.90
13598;DHT22;38563;54.258;12.574;2023-04-30T13:56:23;13.10;99.90
13598;DHT22;38563;54.258;12.574;2023-04-30T13:58:49;13.50;99.90
13598;DHT22;38563;54.258;12.574;2023-04-30T14:01:16;13.50;99.90
13598;DHT22;38563;54.258;12.574;2023-04-30T14:03:43;13.40;99.90
13598;DHT22;38563;54.258;12.574;2023-04-30T14:06:12;13.30;99.90
13598;DHT22;38563;54.258;12.574;2023-04-30T14:08:39;13.50;99.90
13598;DHT22;38563;54.258;12.574;2023-04-30T14:11:06;13.30;99.90
13598;DHT22;38563;54.258;12.574;2023-04-30T14:13:32;13.60;99.90
13598;DHT22;38563;54.258;12.574;2023-04-30T14:15:59;13.90;99.90
13598;DHT22;38563;54.258;12.574;2023-04-30T14:18:26;13.90;99.90
13598;DHT22;38563;54.258;12.574;2023-04-30T14:20:53;14.40;99.90
13598;DHT22;38563;54.258;12.574;2023-04-30T14:23:21;14.40;99.90
13598;DHT22;38563;54.258;12.574;2023-04-30T14:25:47;14.40;99.90
13598;DHT22;38563;54.258;12.574;2023-04-30T14:28:14;14.10;99.90
13598;DHT22;38563;54.258;12.574;2023-04-30T14:30:41;14.10;99.90
13598;DHT22;38563;54.258;12.574;2023-04-30T14:33:08;13.90;99.90
13598;DHT22;38563;54.258;12.574;2023-04-30T14:35:36;14.00;99.90
13598;DHT22;38563;54.258;12.574;2023-04-30T14:38:04;14.20;99.90
13598;DHT22;38563;54.258;12.574;2023-04-30T14:40:32;14.20;99.90
13598;DHT22;38563;54.258;12.574;2023-04-30T14:42:58;14.10;99.90
13598;DHT22;38563;54.258;12.574;2023-04-30T14:45:25;13.90;99.90
13598;DHT22;38563;54.258;12.574;2023-04-30T14:47:53;13.90;99.90
13598;DHT22;38563;54.258;12.574;2023-04-30T14:50:20;13.80;99.90
13598;DHT22;38563;54.258;12.574;2023-04-30T14:52:46;13.80;99.90
13598;DHT22;38563;54.258;12.574;2023-04-30T14:55:13;13.90;99.90
13598;DHT22;38563;54.258;12.574;2023-04-30T14:57:41;13.80;99.90
13598;DHT22;38563;54.258;12.574;2023-04-30T15:00:09;14.00;99.90
13598;DHT22;38563;54.258;12.574;2023-04-30T15:02:36;14.30;99.90
13598;DHT22;38563;54.258;12.574;2023-04-30T15:05:03;13.80;99.90
13598;DHT22;38563;54.258;12.574;2023-04-30T15:07:30;13.80;99.90
13598;DHT22;38563;54.258;12.574;2023-04-30T15:09:57;13.50;99.90
13598;DHT22;38563;54.258;12.574;2023-04-30T15:12:23;13.60;99.90
13598;DHT22;38563;54.258;12.574;2023-04-30T15:14:51;13.70;99.90
13598;DHT22;38563;54.258;12.574;2023-04-30T15:17:18;13.70;99.90
13598;DHT22;38563;54.258;12.574;2023-04-30T15:19:45;14.30;99.90
13598;DHT22;38563;54.258;12.574;2023-04-30T15:22:12;14.10;99.90
13598;DHT22;38563;54.258;12.574;2023-04-30T15:24:38;14.10;99.90
13598;DHT22;38563;54.258;12.574;2023-04-30T15:27:05;14.00;99.90
13598;DHT22;38563;54.258;12.574;2023-04-30T15:29:32;14.00;99.90